createdAt,value
2019-04-01T00:02:56.571Z,8.7
2019-04-01T00:08:01.557Z,8.6
2019-04-01T00:13:06.853Z,8.6
2019-04-01T00:18:12.256Z,8.4
2019-04-01T00:23:17.532Z,8.1
2019-04-01T00:28:22.935Z,7.6
2019-04-01T00:33:28.306Z,7.5
2019-04-01T00:38:33.987Z,7.9
2019-04-01T00:43:39.416Z,7.9
2019-04-01T00:48:44.667Z,8.1
2019-04-01T00:53:50.216Z,8.4
2019-04-01T00:58:55.225Z,8.7
2019-04-01T01:04:00.656Z,9
2019-04-01T01:09:06.761Z,9.3
2019-04-01T01:14:12.101Z,9.4
2019-04-01T01:19:17.305Z,9.5
2019-04-01T01:24:22.462Z,9.4
2019-04-01T01:29:27.548Z,9.4
2019-04-01T01:34:32.859Z,9.4
2019-04-01T01:39:38.336Z,9.4
2019-04-01T01:44:42.105Z,9.4
2019-04-01T01:49:47.349Z,9.4
2019-04-01T01:54:52.574Z,9.5
2019-04-01T01:59:57.680Z,9.5
2019-04-01T02:05:02.964Z,9.5
2019-04-01T02:10:08.219Z,9.5
2019-04-01T02:15:13.334Z,9.4
2019-04-01T02:20:18.843Z,9.5
2019-04-01T02:25:22.556Z,9.5
2019-04-01T02:30:27.875Z,9.5
2019-04-01T02:35:33.296Z,9.5
2019-04-01T02:40:38.618Z,9.4
2019-04-01T02:45:43.824Z,9.4
2019-04-01T02:50:49.143Z,9.3
2019-04-01T02:55:54.793Z,9
2019-04-01T03:00:58.464Z,9
2019-04-01T03:06:03.544Z,9.1
2019-04-01T03:11:12.633Z,9.3
2019-04-01T03:16:17.988Z,9.3
2019-04-01T03:21:23.174Z,9.3
2019-04-01T03:26:27.204Z,9.3
2019-04-01T03:31:32.506Z,9.4
2019-04-01T03:36:38.208Z,9.4
2019-04-01T03:41:43.343Z,9.4
2019-04-01T03:46:48.681Z,9.4
2019-04-01T03:51:53.676Z,9.3
2019-04-01T03:56:59.109Z,9.3
2019-04-01T04:02:04.290Z,9.3
2019-04-01T04:07:10.206Z,9.1
2019-04-01T04:12:15.786Z,9.1
2019-04-01T04:17:22.539Z,9.1
2019-04-01T04:22:28.031Z,9.1
2019-04-01T04:27:33.111Z,9.1
2019-04-01T04:32:38.637Z,9
2019-04-01T04:37:44.345Z,9
2019-04-01T04:42:49.480Z,9
2019-04-01T04:47:55.249Z,9.2
2019-04-01T04:53:00.203Z,9.3
2019-04-01T04:58:04.024Z,9.5
2019-04-01T05:03:08.986Z,9.7
2019-04-01T05:08:14.371Z,9.8
2019-04-01T05:13:19.353Z,10
2019-04-01T05:18:24.590Z,10.3
2019-04-01T05:23:29.761Z,10.5
2019-04-01T05:28:33.565Z,10.7
2019-04-01T05:33:38.653Z,11
2019-04-01T05:38:44.478Z,11.2
2019-04-01T05:43:49.518Z,11.4
2019-04-01T05:48:54.576Z,11.6
2019-04-01T05:53:59.908Z,11.8
2019-04-01T05:59:05.275Z,12
2019-04-01T06:04:10.479Z,12.3
2019-04-01T06:09:15.692Z,12.6
2019-04-01T06:14:21.070Z,12.7
2019-04-01T06:19:26.196Z,12.8
2019-04-01T06:24:31.503Z,13
2019-04-01T06:29:36.844Z,13.4
2019-04-01T06:34:54.558Z,13.9
2019-04-01T06:39:49.731Z,13.9
2019-04-01T06:44:53.209Z,14.1
2019-04-01T06:49:58.452Z,14.3
2019-04-01T06:55:02.073Z,14.4
2019-04-01T07:00:07.433Z,15.2
2019-04-01T07:05:14.651Z,15.6
2019-04-01T07:10:20.049Z,15.6
2019-04-01T07:15:29.083Z,15.9
2019-04-01T07:20:34.468Z,16.3
2019-04-01T07:25:39.842Z,16.1
2019-04-01T07:30:45.191Z,16.5
2019-04-01T07:35:50.326Z,17.2
2019-04-01T07:40:59.049Z,18
2019-04-01T07:46:07.794Z,18
2019-04-01T07:51:13.524Z,18.7
2019-04-01T07:56:17.467Z,20.5
2019-04-01T08:01:22.446Z,21.9
2019-04-01T08:06:26.413Z,22
2019-04-01T08:11:30.142Z,22.4
2019-04-01T08:16:35.283Z,22.6
2019-04-01T08:21:40.367Z,22.6
2019-04-01T08:26:48.518Z,23.4
2019-04-01T08:31:54.450Z,24.4
2019-04-01T08:36:59.804Z,25.3
2019-04-01T08:42:05.817Z,25.4
2019-04-01T08:47:11.004Z,25.3
2019-04-01T08:52:14.982Z,24.8
2019-04-01T08:57:20.029Z,24.4
2019-04-01T09:02:25.156Z,26.2
2019-04-01T09:07:28.905Z,25.8
2019-04-01T09:12:33.933Z,26
2019-04-01T09:17:42.158Z,26.4
2019-04-01T09:22:50.291Z,26.2
2019-04-01T09:27:55.360Z,26.2
2019-04-01T09:33:00.680Z,26.7
2019-04-01T09:38:05.837Z,29.5
2019-04-01T09:43:14.839Z,31.7
2019-04-01T09:48:23.338Z,31.6
2019-04-01T09:53:28.850Z,30.7
2019-04-01T09:58:34.191Z,32.7
2019-04-01T10:03:38.007Z,33
2019-04-01T10:08:44.773Z,35.2
2019-04-01T10:13:50.093Z,35
2019-04-01T10:18:55.336Z,33.7
2019-04-01T10:24:00.557Z,35.2
2019-04-01T10:29:06.066Z,35.7
2019-04-01T10:34:11.739Z,35.4
2019-04-01T10:39:17.092Z,34.7
2019-04-01T10:44:22.480Z,34.6
2019-04-01T10:49:28.223Z,33.8
2019-04-01T10:54:37.487Z,31.7
2019-04-01T10:59:43.147Z,30.7
2019-04-01T11:04:49.339Z,30.4
2019-04-01T11:09:54.626Z,30.4
2019-04-01T11:15:03.225Z,32.9
2019-04-01T11:20:10.379Z,37
2019-04-01T11:25:15.797Z,36.8
2019-04-01T11:30:21.168Z,34.7
2019-04-01T11:35:26.658Z,32.8
2019-04-01T11:40:31.835Z,33.1
2019-04-01T11:45:37.451Z,34
2019-04-01T11:50:41.709Z,34.4
2019-04-01T11:55:46.740Z,34.1
2019-04-01T12:00:51.878Z,32.6
2019-04-01T12:05:57.527Z,30.4
2019-04-01T12:11:02.551Z,30.3
2019-04-01T12:16:08.896Z,30.3
2019-04-01T12:21:15.029Z,30.3
2019-04-01T12:26:20.264Z,31.3
2019-04-01T12:31:25.286Z,30.5
2019-04-01T12:36:30.549Z,31
2019-04-01T12:41:35.717Z,30.1
2019-04-01T12:46:40.960Z,29.5
2019-04-01T12:51:46.126Z,27.8
2019-04-01T12:56:51.315Z,25.7
2019-04-01T13:01:55.245Z,24.1
2019-04-01T13:07:00.556Z,24
2019-04-01T13:12:08.079Z,23.4
2019-04-01T13:17:13.388Z,22.9
2019-04-01T13:22:18.542Z,22
2019-04-01T13:27:24.280Z,21.1
2019-04-01T13:32:32.599Z,20.5
2019-04-01T13:37:38.280Z,20.4
2019-04-01T13:42:45.198Z,20.5
2019-04-01T13:47:51.738Z,20.3
2019-04-01T13:52:56.763Z,20.3
2019-04-01T13:58:01.953Z,20.2
2019-04-01T14:03:07.241Z,19.7
2019-04-01T14:08:15.559Z,19.6
2019-04-01T14:13:20.724Z,19.7
2019-04-01T14:18:26.265Z,19.6
2019-04-01T14:23:31.319Z,19.6
2019-04-01T14:28:38.152Z,19.4
2019-04-01T14:33:43.403Z,19.3
2019-04-01T14:38:48.393Z,19.2
2019-04-01T14:43:57.044Z,19
2019-04-01T14:49:04.742Z,19
2019-04-01T14:54:08.525Z,19
2019-04-01T14:59:16.140Z,19
2019-04-01T15:04:26.212Z,18.8
2019-04-01T15:09:25.285Z,18.7
2019-04-01T15:14:21.674Z,18.7
2019-04-01T15:19:31.387Z,18.4
2019-04-01T15:24:36.357Z,18.4
2019-04-01T15:29:41.452Z,18.3
2019-04-01T15:34:46.456Z,18.3
2019-04-01T15:39:53.734Z,18.1
2019-04-01T15:44:59.375Z,18
2019-04-01T15:51:17.067Z,17.8
2019-04-01T15:56:22.642Z,17.7
2019-04-01T16:01:32.304Z,17.6
2019-04-01T16:06:38.733Z,17.6
2019-04-01T16:11:44.215Z,17.5
2019-04-01T16:16:49.422Z,17.4
2019-04-01T16:21:55.127Z,17.3
2019-04-01T16:27:04.456Z,17.2
2019-04-01T16:32:09.625Z,17.1
2019-04-01T16:37:15.020Z,16.9
2019-04-01T16:42:21.277Z,16.6
2019-04-01T16:47:26.344Z,16.5
2019-04-01T16:52:31.503Z,16.4
2019-04-01T17:02:43.033Z,16
2019-04-01T17:07:47.914Z,15.8
2019-04-01T17:12:51.652Z,15.6
2019-04-01T17:17:57.009Z,15.5
2019-04-01T17:23:03.095Z,15.2
2019-04-01T17:28:08.236Z,15.1
2019-04-01T17:33:13.226Z,14.9
2019-04-01T17:38:18.443Z,14.8
2019-04-01T17:43:27.800Z,14.4
2019-04-01T17:48:31.307Z,14.4
2019-04-01T17:53:37.648Z,14.1
2019-04-01T17:58:39.809Z,14
2019-04-01T18:03:44.850Z,13.8
2019-04-01T18:08:50.108Z,13.6
2019-04-01T18:13:55.503Z,13.4
2019-04-01T18:19:01.209Z,13.3
2019-04-01T18:24:07.029Z,13
2019-04-01T18:29:12.099Z,13
2019-04-01T18:34:17.203Z,12.9
2019-04-01T18:39:22.300Z,12.8
2019-04-01T18:44:27.526Z,12.8
2019-04-01T18:49:32.617Z,12.7
2019-04-01T18:54:38.101Z,12.6
2019-04-01T18:59:41.745Z,12.5
2019-04-01T19:04:46.839Z,12.3
2019-04-01T19:10:06.786Z,12
2019-04-01T19:15:04.421Z,11.9
2019-04-01T19:20:11.296Z,11.9
2019-04-01T19:25:16.866Z,11.8
2019-04-01T19:30:22.975Z,11.6
2019-04-01T19:35:28.329Z,11.6
2019-04-01T19:40:33.450Z,11.5
2019-04-01T19:45:37.405Z,11.4
2019-04-01T19:50:45.981Z,11.2
2019-04-01T19:55:49.615Z,11.2
2019-04-01T20:00:54.541Z,11
2019-04-01T20:05:59.479Z,11
2019-04-01T20:11:07.136Z,10.8
2019-04-01T20:21:16.469Z,10.6
2019-04-01T20:26:21.816Z,10.5
2019-04-01T20:31:26.940Z,10.4
2019-04-01T20:36:33.384Z,10.3
2019-04-01T20:41:39.188Z,10.1
2019-04-01T20:46:43.033Z,10
2019-04-01T20:51:48.182Z,10
2019-04-01T20:56:53.313Z,9.9
2019-04-01T21:01:56.926Z,9.9
2019-04-01T21:07:02.421Z,9.8
2019-04-01T21:12:10.087Z,9.6
2019-04-01T21:17:15.820Z,9.6
2019-04-01T21:22:20.827Z,9.6
2019-04-01T21:27:26.166Z,9.5
2019-04-01T21:32:31.568Z,9.5
2019-04-01T21:37:37.267Z,9.4
2019-04-01T21:42:45.048Z,9.3
2019-04-01T21:47:50.232Z,9.3
2019-04-01T21:52:55.320Z,9.2
2019-04-01T22:03:06.412Z,9.1
2019-04-01T22:08:11.837Z,9.1
2019-04-01T22:13:16.903Z,9.1
2019-04-01T22:18:22.274Z,9
2019-04-01T22:23:27.549Z,9
2019-04-01T22:28:32.827Z,9
2019-04-01T22:33:37.748Z,8.9
2019-04-01T22:38:43.136Z,8.8
2019-04-01T22:43:48.801Z,8.7
2019-04-01T22:48:54.045Z,8.7
2019-04-01T22:53:59.129Z,8.8
2019-04-01T22:59:04.511Z,8.7
2019-04-01T23:04:10.736Z,8.7
2019-04-01T23:09:15.884Z,8.6
2019-04-01T23:14:21.072Z,8.7
2019-04-01T23:19:26.274Z,8.6
2019-04-01T23:24:31.804Z,8.5
2019-04-01T23:29:37.517Z,8.5
2019-04-01T23:34:44.128Z,8.5
2019-04-01T23:39:49.186Z,8.5
2019-04-01T23:44:54.310Z,8.4
2019-04-01T23:49:59.509Z,8.4
2019-04-01T23:55:03.215Z,8.3
